sensor_id;sensor_type;location;lat;lon;timestamp;P1;durP1;ratioP1;P2;durP2;ratioP2
68505;SDS011;55509;50.680;17.942;2022-09-13T00:01:08;9.30;;;8.40;;
68505;SDS011;55509;50.680;17.942;2022-09-13T00:04:13;8.70;;;7.80;;
68505;SDS011;55509;50.680;17.942;2022-09-13T00:07:15;10.40;;;7.90;;
68505;SDS011;55509;50.680;17.942;2022-09-13T00:10:20;7.90;;;7.20;;
68505;SDS011;55509;50.680;17.942;2022-09-13T00:13:22;13.50;;;8.10;;
68505;SDS011;55509;50.680;17.942;2022-09-13T00:16:26;8.80;;;7.60;;
68505;SDS011;55509;50.680;17.942;2022-09-13T00:19:31;11.10;;;8.70;;
68505;SDS011;55509;50.680;17.942;2022-09-13T00:22:36;10.00;;;8.40;;
68505;SDS011;55509;50.680;17.942;2022-09-13T00:25:38;11.40;;;8.30;;
68505;SDS011;55509;50.680;17.942;2022-09-13T00:28:41;13.00;;;8.50;;
68505;SDS011;55509;50.680;17.942;2022-09-13T00:31:48;10.60;;;8.00;;
68505;SDS011;55509;50.680;17.942;2022-09-13T00:34:50;12.50;;;8.10;;
68505;SDS011;55509;50.680;17.942;2022-09-13T00:38:03;12.30;;;8.80;;
68505;SDS011;55509;50.680;17.942;2022-09-13T00:41:06;9.60;;;8.50;;
68505;SDS011;55509;50.680;17.942;2022-09-13T00:51:08;11.60;;;9.10;;
68505;SDS011;55509;50.680;17.942;2022-09-13T00:54:16;16.10;;;8.60;;
68505;SDS011;55509;50.680;17.942;2022-09-13T00:57:22;8.30;;;7.20;;
68505;SDS011;55509;50.680;17.942;2022-09-13T01:00:26;11.90;;;8.50;;
68505;SDS011;55509;50.680;17.942;2022-09-13T01:03:29;10.80;;;7.70;;
68505;SDS011;55509;50.680;17.942;2022-09-13T01:06:35;9.30;;;8.30;;
68505;SDS011;55509;50.680;17.942;2022-09-13T01:09:42;32.20;;;8.90;;
68505;SDS011;55509;50.680;17.942;2022-09-13T01:16:02;13.40;;;10.50;;
68505;SDS011;55509;50.680;17.942;2022-09-13T01:19:07;16.70;;;11.40;;
68505;SDS011;55509;50.680;17.942;2022-09-13T01:25:45;14.00;;;12.40;;
68505;SDS011;55509;50.680;17.942;2022-09-13T01:36:21;14.30;;;12.60;;
68505;SDS011;55509;50.680;17.942;2022-09-13T01:43:03;17.70;;;13.60;;
68505;SDS011;55509;50.680;17.942;2022-09-13T01:46:08;17.70;;;12.30;;
68505;SDS011;55509;50.680;17.942;2022-09-13T01:53:00;18.20;;;12.70;;
68505;SDS011;55509;50.680;17.942;2022-09-13T01:56:09;13.20;;;11.90;;
68505;SDS011;55509;50.680;17.942;2022-09-13T02:03:00;13.70;;;11.70;;
68505;SDS011;55509;50.680;17.942;2022-09-13T02:06:14;15.00;;;10.40;;
68505;SDS011;55509;50.680;17.942;2022-09-13T02:09:25;11.40;;;10.30;;
68505;SDS011;55509;50.680;17.942;2022-09-13T02:12:42;10.60;;;9.40;;
68505;SDS011;55509;50.680;17.942;2022-09-13T02:15:53;12.60;;;10.40;;
68505;SDS011;55509;50.680;17.942;2022-09-13T02:19:05;11.20;;;9.80;;
68505;SDS011;55509;50.680;17.942;2022-09-13T02:22:13;14.00;;;10.70;;
68505;SDS011;55509;50.680;17.942;2022-09-13T02:25:36;11.90;;;10.70;;
68505;SDS011;55509;50.680;17.942;2022-09-13T02:28:51;12.30;;;11.20;;
68505;SDS011;55509;50.680;17.942;2022-09-13T02:35:57;13.30;;;10.40;;
68505;SDS011;55509;50.680;17.942;2022-09-13T02:39:11;10.70;;;8.90;;
68505;SDS011;55509;50.680;17.942;2022-09-13T02:42:22;15.50;;;9.40;;
68505;SDS011;55509;50.680;17.942;2022-09-13T02:45:33;12.30;;;10.00;;
68505;SDS011;55509;50.680;17.942;2022-09-13T02:48:55;10.60;;;9.50;;
68505;SDS011;55509;50.680;17.942;2022-09-13T02:52:03;13.00;;;10.20;;
68505;SDS011;55509;50.680;17.942;2022-09-13T02:55:25;9.90;;;7.50;;
68505;SDS011;55509;50.680;17.942;2022-09-13T03:05:19;9.00;;;8.10;;
68505;SDS011;55509;50.680;17.942;2022-09-13T03:08:30;10.90;;;9.70;;
68505;SDS011;55509;50.680;17.942;2022-09-13T03:11:41;10.20;;;9.20;;
68505;SDS011;55509;50.680;17.942;2022-09-13T03:30:02;10.00;;;9.00;;
68505;SDS011;55509;50.680;17.942;2022-09-13T03:43:09;12.20;;;9.40;;
68505;SDS011;55509;50.680;17.942;2022-09-13T03:50:04;9.40;;;8.50;;
68505;SDS011;55509;50.680;17.942;2022-09-13T03:53:11;9.80;;;8.80;;
68505;SDS011;55509;50.680;17.942;2022-09-13T03:56:17;15.90;;;14.00;;
68505;SDS011;55509;50.680;17.942;2022-09-13T03:59:31;11.20;;;9.50;;
68505;SDS011;55509;50.680;17.942;2022-09-13T04:02:36;14.90;;;9.70;;
68505;SDS011;55509;50.680;17.942;2022-09-13T04:05:44;10.00;;;8.00;;
68505;SDS011;55509;50.680;17.942;2022-09-13T04:08:49;11.40;;;8.90;;
68505;SDS011;55509;50.680;17.942;2022-09-13T04:11:54;12.50;;;9.10;;
68505;SDS011;55509;50.680;17.942;2022-09-13T04:14:56;11.20;;;9.90;;
68505;SDS011;55509;50.680;17.942;2022-09-13T04:18:01;11.70;;;8.90;;
68505;SDS011;55509;50.680;17.942;2022-09-13T04:21:07;10.70;;;9.00;;
68505;SDS011;55509;50.680;17.942;2022-09-13T04:24:14;11.70;;;9.60;;
68505;SDS011;55509;50.680;17.942;2022-09-13T04:27:19;14.00;;;9.30;;
68505;SDS011;55509;50.680;17.942;2022-09-13T04:30:21;17.10;;;11.60;;
68505;SDS011;55509;50.680;17.942;2022-09-13T04:33:25;19.50;;;12.20;;
68505;SDS011;55509;50.680;17.942;2022-09-13T04:36:30;21.90;;;12.80;;
68505;SDS011;55509;50.680;17.942;2022-09-13T04:39:32;35.80;;;14.00;;
68505;SDS011;55509;50.680;17.942;2022-09-13T04:45:44;29.90;;;14.40;;
68505;SDS011;55509;50.680;17.942;2022-09-13T04:48:57;19.40;;;12.50;;
68505;SDS011;55509;50.680;17.942;2022-09-13T04:52:07;25.80;;;14.50;;
68505;SDS011;55509;50.680;17.942;2022-09-13T04:55:14;21.50;;;13.40;;
68505;SDS011;55509;50.680;17.942;2022-09-13T04:58:16;12.20;;;10.10;;
68505;SDS011;55509;50.680;17.942;2022-09-13T05:01:24;22.40;;;12.60;;
68505;SDS011;55509;50.680;17.942;2022-09-13T05:04:30;16.70;;;11.20;;
68505;SDS011;55509;50.680;17.942;2022-09-13T05:07:32;19.70;;;11.20;;
68505;SDS011;55509;50.680;17.942;2022-09-13T05:10:36;15.00;;;10.70;;
68505;SDS011;55509;50.680;17.942;2022-09-13T05:13:38;22.00;;;11.10;;
68505;SDS011;55509;50.680;17.942;2022-09-13T05:16:42;18.10;;;10.90;;
68505;SDS011;55509;50.680;17.942;2022-09-13T05:19:44;17.50;;;10.10;;
68505;SDS011;55509;50.680;17.942;2022-09-13T05:22:46;16.80;;;10.80;;
68505;SDS011;55509;50.680;17.942;2022-09-13T05:25:55;16.90;;;10.60;;
68505;SDS011;55509;50.680;17.942;2022-09-13T05:29:00;26.00;;;10.30;;
68505;SDS011;55509;50.680;17.942;2022-09-13T05:32:03;17.50;;;9.70;;
68505;SDS011;55509;50.680;17.942;2022-09-13T05:35:05;18.30;;;9.30;;
68505;SDS011;55509;50.680;17.942;2022-09-13T05:38:07;17.40;;;10.30;;
68505;SDS011;55509;50.680;17.942;2022-09-13T05:41:09;13.50;;;9.40;;
68505;SDS011;55509;50.680;17.942;2022-09-13T05:44:10;10.60;;;9.40;;
68505;SDS011;55509;50.680;17.942;2022-09-13T05:47:12;22.80;;;10.30;;
68505;SDS011;55509;50.680;17.942;2022-09-13T05:50:14;35.00;;;9.90;;
68505;SDS011;55509;50.680;17.942;2022-09-13T05:53:16;19.80;;;9.10;;
68505;SDS011;55509;50.680;17.942;2022-09-13T05:56:27;19.40;;;9.30;;
68505;SDS011;55509;50.680;17.942;2022-09-13T05:59:30;10.00;;;8.40;;
68505;SDS011;55509;50.680;17.942;2022-09-13T06:02:32;12.60;;;8.40;;
68505;SDS011;55509;50.680;17.942;2022-09-13T06:05:36;20.10;;;9.50;;
68505;SDS011;55509;50.680;17.942;2022-09-13T06:08:37;13.00;;;9.30;;
68505;SDS011;55509;50.680;17.942;2022-09-13T06:11:39;10.50;;;8.40;;
68505;SDS011;55509;50.680;17.942;2022-09-13T06:14:46;13.50;;;9.60;;
68505;SDS011;55509;50.680;17.942;2022-09-13T06:17:51;13.90;;;8.60;;
68505;SDS011;55509;50.680;17.942;2022-09-13T06:20:59;10.30;;;8.80;;
68505;SDS011;55509;50.680;17.942;2022-09-13T06:24:02;10.30;;;8.10;;
68505;SDS011;55509;50.680;17.942;2022-09-13T06:27:07;11.00;;;9.00;;
68505;SDS011;55509;50.680;17.942;2022-09-13T06:30:10;9.00;;;8.20;;
68505;SDS011;55509;50.680;17.942;2022-09-13T06:33:13;9.70;;;6.50;;
68505;SDS011;55509;50.680;17.942;2022-09-13T06:36:18;8.10;;;7.20;;
68505;SDS011;55509;50.680;17.942;2022-09-13T06:39:20;8.40;;;6.30;;
68505;SDS011;55509;50.680;17.942;2022-09-13T06:42:22;6.20;;;5.60;;
68505;SDS011;55509;50.680;17.942;2022-09-13T06:45:34;6.10;;;5.50;;
68505;SDS011;55509;50.680;17.942;2022-09-13T06:48:39;6.90;;;6.30;;
68505;SDS011;55509;50.680;17.942;2022-09-13T06:51:42;7.50;;;5.10;;
68505;SDS011;55509;50.680;17.942;2022-09-13T06:54:44;7.80;;;6.40;;
68505;SDS011;55509;50.680;17.942;2022-09-13T06:57:46;11.00;;;7.10;;
68505;SDS011;55509;50.680;17.942;2022-09-13T07:00:50;6.00;;;5.50;;
68505;SDS011;55509;50.680;17.942;2022-09-13T07:04:04;9.50;;;5.50;;
68505;SDS011;55509;50.680;17.942;2022-09-13T07:07:07;5.20;;;4.80;;
68505;SDS011;55509;50.680;17.942;2022-09-13T07:10:12;5.40;;;4.90;;
68505;SDS011;55509;50.680;17.942;2022-09-13T07:13:14;5.50;;;5.00;;
68505;SDS011;55509;50.680;17.942;2022-09-13T07:16:16;6.40;;;5.30;;
68505;SDS011;55509;50.680;17.942;2022-09-13T07:19:22;5.80;;;5.20;;
68505;SDS011;55509;50.680;17.942;2022-09-13T07:22:26;5.60;;;3.80;;
68505;SDS011;55509;50.680;17.942;2022-09-13T07:25:31;6.10;;;5.60;;
68505;SDS011;55509;50.680;17.942;2022-09-13T07:28:39;4.90;;;4.20;;
68505;SDS011;55509;50.680;17.942;2022-09-13T07:31:43;5.10;;;4.70;;
68505;SDS011;55509;50.680;17.942;2022-09-13T07:34:47;4.60;;;4.20;;
68505;SDS011;55509;50.680;17.942;2022-09-13T07:37:49;4.80;;;4.50;;
68505;SDS011;55509;50.680;17.942;2022-09-13T07:40:56;5.80;;;4.90;;
68505;SDS011;55509;50.680;17.942;2022-09-13T07:43:59;5.90;;;5.40;;
68505;SDS011;55509;50.680;17.942;2022-09-13T07:47:10;5.60;;;5.10;;
68505;SDS011;55509;50.680;17.942;2022-09-13T07:50:12;5.20;;;4.30;;
68505;SDS011;55509;50.680;17.942;2022-09-13T07:53:16;5.00;;;4.60;;
68505;SDS011;55509;50.680;17.942;2022-09-13T07:56:19;6.70;;;4.80;;
68505;SDS011;55509;50.680;17.942;2022-09-13T07:59:24;4.80;;;4.40;;
68505;SDS011;55509;50.680;17.942;2022-09-13T08:02:25;4.40;;;4.10;;
68505;SDS011;55509;50.680;17.942;2022-09-13T08:05:27;6.30;;;4.30;;
68505;SDS011;55509;50.680;17.942;2022-09-13T08:08:33;5.20;;;4.70;;
68505;SDS011;55509;50.680;17.942;2022-09-13T08:11:44;4.80;;;4.40;;
68505;SDS011;55509;50.680;17.942;2022-09-13T08:14:51;5.30;;;4.20;;
68505;SDS011;55509;50.680;17.942;2022-09-13T08:17:53;4.60;;;4.30;;
68505;SDS011;55509;50.680;17.942;2022-09-13T08:20:57;4.50;;;4.20;;
68505;SDS011;55509;50.680;17.942;2022-09-13T08:24:04;5.60;;;4.80;;
68505;SDS011;55509;50.680;17.942;2022-09-13T08:27:16;5.50;;;5.10;;
68505;SDS011;55509;50.680;17.942;2022-09-13T08:30:17;5.30;;;4.10;;
68505;SDS011;55509;50.680;17.942;2022-09-13T08:33:22;4.90;;;4.50;;
68505;SDS011;55509;50.680;17.942;2022-09-13T08:36:27;5.30;;;4.90;;
68505;SDS011;55509;50.680;17.942;2022-09-13T08:39:29;9.60;;;4.40;;
68505;SDS011;55509;50.680;17.942;2022-09-13T08:45:40;6.30;;;5.70;;
68505;SDS011;55509;50.680;17.942;2022-09-13T08:48:44;5.20;;;4.80;;
68505;SDS011;55509;50.680;17.942;2022-09-13T08:52:00;5.60;;;5.10;;
68505;SDS011;55509;50.680;17.942;2022-09-13T09:05:44;4.50;;;4.10;;
68505;SDS011;55509;50.680;17.942;2022-09-13T09:09:06;6.30;;;5.60;;
68505;SDS011;55509;50.680;17.942;2022-09-13T09:12:32;5.10;;;4.70;;
68505;SDS011;55509;50.680;17.942;2022-09-13T09:16:19;8.40;;;3.80;;
68505;SDS011;55509;50.680;17.942;2022-09-13T09:19:37;9.00;;;4.30;;
68505;SDS011;55509;50.680;17.942;2022-09-13T09:22:47;5.20;;;4.80;;
68505;SDS011;55509;50.680;17.942;2022-09-13T09:25:55;5.80;;;5.10;;
68505;SDS011;55509;50.680;17.942;2022-09-13T09:29:21;4.70;;;4.50;;
68505;SDS011;55509;50.680;17.942;2022-09-13T09:32:36;4.30;;;4.10;;
68505;SDS011;55509;50.680;17.942;2022-09-13T09:35:53;6.70;;;4.80;;
68505;SDS011;55509;50.680;17.942;2022-09-13T09:39:28;5.40;;;4.70;;
68505;SDS011;55509;50.680;17.942;2022-09-13T09:42:40;5.70;;;5.30;;
68505;SDS011;55509;50.680;17.942;2022-09-13T09:46:00;6.30;;;5.80;;
68505;SDS011;55509;50.680;17.942;2022-09-13T09:49:18;5.80;;;5.30;;
68505;SDS011;55509;50.680;17.942;2022-09-13T09:52:48;4.70;;;4.50;;
68505;SDS011;55509;50.680;17.942;2022-09-13T09:56:37;5.30;;;5.00;;
68505;SDS011;55509;50.680;17.942;2022-09-13T10:00:02;5.30;;;5.00;;
68505;SDS011;55509;50.680;17.942;2022-09-13T10:03:45;4.60;;;4.40;;
68505;SDS011;55509;50.680;17.942;2022-09-13T10:07:31;5.70;;;5.40;;
68505;SDS011;55509;50.680;17.942;2022-09-13T10:10:43;6.20;;;4.90;;
68505;SDS011;55509;50.680;17.942;2022-09-13T10:14:03;5.20;;;4.90;;
68505;SDS011;55509;50.680;17.942;2022-09-13T10:20:20;5.20;;;4.90;;
68505;SDS011;55509;50.680;17.942;2022-09-13T10:23:27;5.10;;;4.80;;
68505;SDS011;55509;50.680;17.942;2022-09-13T10:26:31;6.60;;;4.80;;
68505;SDS011;55509;50.680;17.942;2022-09-13T10:29:43;5.10;;;4.80;;
68505;SDS011;55509;50.680;17.942;2022-09-13T10:33:00;4.80;;;4.60;;
68505;SDS011;55509;50.680;17.942;2022-09-13T10:40:12;4.30;;;4.00;;
68505;SDS011;55509;50.680;17.942;2022-09-13T10:43:34;4.60;;;3.90;;
68505;SDS011;55509;50.680;17.942;2022-09-13T10:46:45;3.30;;;3.00;;
68505;SDS011;55509;50.680;17.942;2022-09-13T10:49:52;3.40;;;3.20;;
68505;SDS011;55509;50.680;17.942;2022-09-13T10:52:56;3.00;;;2.60;;
68505;SDS011;55509;50.680;17.942;2022-09-13T10:56:00;3.40;;;3.10;;
68505;SDS011;55509;50.680;17.942;2022-09-13T11:06:18;4.60;;;3.20;;
68505;SDS011;55509;50.680;17.942;2022-09-13T11:10:04;3.60;;;3.30;;
68505;SDS011;55509;50.680;17.942;2022-09-13T11:23:47;5.10;;;3.20;;
68505;SDS011;55509;50.680;17.942;2022-09-13T11:27:18;2.70;;;2.50;;
68505;SDS011;55509;50.680;17.942;2022-09-13T11:30:25;6.60;;;2.80;;
68505;SDS011;55509;50.680;17.942;2022-09-13T11:34:15;5.00;;;4.00;;
68505;SDS011;55509;50.680;17.942;2022-09-13T11:59:42;3.20;;;2.90;;
68505;SDS011;55509;50.680;17.942;2022-09-13T12:06:14;4.90;;;3.60;;
68505;SDS011;55509;50.680;17.942;2022-09-13T12:09:22;3.80;;;3.50;;
68505;SDS011;55509;50.680;17.942;2022-09-13T12:12:31;3.70;;;3.20;;
68505;SDS011;55509;50.680;17.942;2022-09-13T12:15:36;3.60;;;3.30;;
68505;SDS011;55509;50.680;17.942;2022-09-13T12:18:55;5.70;;;3.10;;
68505;SDS011;55509;50.680;17.942;2022-09-13T12:22:00;3.60;;;3.30;;
68505;SDS011;55509;50.680;17.942;2022-09-13T12:25:05;5.80;;;2.90;;
68505;SDS011;55509;50.680;17.942;2022-09-13T12:28:21;3.00;;;2.70;;
68505;SDS011;55509;50.680;17.942;2022-09-13T12:31:30;3.40;;;3.00;;
68505;SDS011;55509;50.680;17.942;2022-09-13T12:38:32;3.10;;;2.80;;
68505;SDS011;55509;50.680;17.942;2022-09-13T12:45:27;3.40;;;3.10;;
68505;SDS011;55509;50.680;17.942;2022-09-13T12:59:50;3.30;;;3.10;;
68505;SDS011;55509;50.680;17.942;2022-09-13T13:03:19;3.40;;;2.70;;
68505;SDS011;55509;50.680;17.942;2022-09-13T13:09:37;2.40;;;2.30;;
68505;SDS011;55509;50.680;17.942;2022-09-13T13:12:49;3.50;;;1.70;;
68505;SDS011;55509;50.680;17.942;2022-09-13T13:15:55;3.00;;;2.80;;
68505;SDS011;55509;50.680;17.942;2022-09-13T13:19:00;3.40;;;3.10;;
68505;SDS011;55509;50.680;17.942;2022-09-13T13:26:03;3.30;;;2.80;;
68505;SDS011;55509;50.680;17.942;2022-09-13T13:29:12;2.90;;;2.70;;
68505;SDS011;55509;50.680;17.942;2022-09-13T13:32:31;3.10;;;2.50;;
68505;SDS011;55509;50.680;17.942;2022-09-13T13:35:32;5.00;;;3.30;;
68505;SDS011;55509;50.680;17.942;2022-09-13T13:38:41;3.50;;;3.00;;
68505;SDS011;55509;50.680;17.942;2022-09-13T13:41:51;3.10;;;2.90;;
68505;SDS011;55509;50.680;17.942;2022-09-13T13:48:33;3.30;;;3.10;;
68505;SDS011;55509;50.680;17.942;2022-09-13T13:51:42;5.50;;;3.30;;
68505;SDS011;55509;50.680;17.942;2022-09-13T14:00:58;7.90;;;2.80;;
68505;SDS011;55509;50.680;17.942;2022-09-13T14:07:33;3.70;;;3.10;;
68505;SDS011;55509;50.680;17.942;2022-09-13T14:13:59;3.60;;;3.20;;
68505;SDS011;55509;50.680;17.942;2022-09-13T14:21:03;3.10;;;2.90;;
68505;SDS011;55509;50.680;17.942;2022-09-13T14:24:22;4.70;;;3.40;;
68505;SDS011;55509;50.680;17.942;2022-09-13T14:27:25;6.20;;;3.30;;
68505;SDS011;55509;50.680;17.942;2022-09-13T14:30:36;3.60;;;3.30;;
68505;SDS011;55509;50.680;17.942;2022-09-13T14:33:39;5.00;;;4.20;;
68505;SDS011;55509;50.680;17.942;2022-09-13T14:36:49;3.00;;;2.70;;
68505;SDS011;55509;50.680;17.942;2022-09-13T14:43:29;3.20;;;2.90;;
68505;SDS011;55509;50.680;17.942;2022-09-13T14:46:41;5.10;;;3.70;;
68505;SDS011;55509;50.680;17.942;2022-09-13T14:49:47;4.30;;;3.70;;
68505;SDS011;55509;50.680;17.942;2022-09-13T14:53:12;3.90;;;3.60;;
68505;SDS011;55509;50.680;17.942;2022-09-13T14:56:26;4.00;;;3.60;;
68505;SDS011;55509;50.680;17.942;2022-09-13T14:59:43;6.80;;;4.40;;
68505;SDS011;55509;50.680;17.942;2022-09-13T15:02:52;7.50;;;4.00;;
68505;SDS011;55509;50.680;17.942;2022-09-13T15:05:57;6.30;;;4.00;;
68505;SDS011;55509;50.680;17.942;2022-09-13T15:09:14;4.80;;;4.40;;
68505;SDS011;55509;50.680;17.942;2022-09-13T15:12:29;4.10;;;3.70;;
68505;SDS011;55509;50.680;17.942;2022-09-13T15:15:38;5.10;;;4.20;;
68505;SDS011;55509;50.680;17.942;2022-09-13T15:18:43;5.80;;;3.70;;
68505;SDS011;55509;50.680;17.942;2022-09-13T15:21:44;3.90;;;2.90;;
68505;SDS011;55509;50.680;17.942;2022-09-13T15:24:48;5.60;;;3.20;;
68505;SDS011;55509;50.680;17.942;2022-09-13T15:28:26;4.50;;;3.60;;
68505;SDS011;55509;50.680;17.942;2022-09-13T15:31:31;3.40;;;3.10;;
68505;SDS011;55509;50.680;17.942;2022-09-13T15:34:34;4.20;;;3.80;;
68505;SDS011;55509;50.680;17.942;2022-09-13T15:37:46;3.70;;;3.20;;
68505;SDS011;55509;50.680;17.942;2022-09-13T15:41:13;4.80;;;4.00;;
68505;SDS011;55509;50.680;17.942;2022-09-13T15:44:19;8.80;;;3.80;;
68505;SDS011;55509;50.680;17.942;2022-09-13T15:47:24;13.50;;;3.70;;
68505;SDS011;55509;50.680;17.942;2022-09-13T15:50:28;4.50;;;4.10;;
68505;SDS011;55509;50.680;17.942;2022-09-13T15:53:31;4.20;;;3.30;;
68505;SDS011;55509;50.680;17.942;2022-09-13T15:56:37;7.40;;;3.90;;
68505;SDS011;55509;50.680;17.942;2022-09-13T15:59:43;7.80;;;4.60;;
68505;SDS011;55509;50.680;17.942;2022-09-13T16:02:47;5.60;;;4.00;;
68505;SDS011;55509;50.680;17.942;2022-09-13T16:05:49;3.80;;;3.40;;
68505;SDS011;55509;50.680;17.942;2022-09-13T16:08:51;6.80;;;4.80;;
68505;SDS011;55509;50.680;17.942;2022-09-13T16:11:53;5.00;;;3.70;;
68505;SDS011;55509;50.680;17.942;2022-09-13T16:14:58;4.10;;;3.80;;
68505;SDS011;55509;50.680;17.942;2022-09-13T16:18:02;3.90;;;3.50;;
68505;SDS011;55509;50.680;17.942;2022-09-13T16:21:07;5.10;;;4.60;;
68505;SDS011;55509;50.680;17.942;2022-09-13T16:24:09;5.10;;;4.30;;
68505;SDS011;55509;50.680;17.942;2022-09-13T16:27:11;4.60;;;4.20;;
68505;SDS011;55509;50.680;17.942;2022-09-13T16:30:18;5.40;;;4.50;;
68505;SDS011;55509;50.680;17.942;2022-09-13T16:33:22;7.40;;;4.10;;
68505;SDS011;55509;50.680;17.942;2022-09-13T16:36:24;8.00;;;4.50;;
68505;SDS011;55509;50.680;17.942;2022-09-13T16:39:31;5.90;;;5.10;;
68505;SDS011;55509;50.680;17.942;2022-09-13T16:42:36;6.10;;;5.60;;
68505;SDS011;55509;50.680;17.942;2022-09-13T16:45:38;5.60;;;4.70;;
68505;SDS011;55509;50.680;17.942;2022-09-13T16:48:41;6.70;;;4.40;;
68505;SDS011;55509;50.680;17.942;2022-09-13T16:51:42;3.80;;;3.40;;
68505;SDS011;55509;50.680;17.942;2022-09-13T16:54:44;3.80;;;3.20;;
68505;SDS011;55509;50.680;17.942;2022-09-13T16:57:49;4.70;;;4.20;;
68505;SDS011;55509;50.680;17.942;2022-09-13T17:00:52;6.20;;;4.30;;
68505;SDS011;55509;50.680;17.942;2022-09-13T17:03:55;4.90;;;4.40;;
68505;SDS011;55509;50.680;17.942;2022-09-13T17:06:57;6.70;;;4.80;;
68505;SDS011;55509;50.680;17.942;2022-09-13T17:10:05;5.40;;;4.70;;
68505;SDS011;55509;50.680;17.942;2022-09-13T17:13:11;6.00;;;5.40;;
68505;SDS011;55509;50.680;17.942;2022-09-13T17:16:27;7.00;;;6.20;;
68505;SDS011;55509;50.680;17.942;2022-09-13T17:19:31;6.00;;;4.90;;
68505;SDS011;55509;50.680;17.942;2022-09-13T17:22:39;9.70;;;5.30;;
68505;SDS011;55509;50.680;17.942;2022-09-13T17:25:45;6.80;;;4.50;;
68505;SDS011;55509;50.680;17.942;2022-09-13T17:28:50;6.60;;;4.60;;
68505;SDS011;55509;50.680;17.942;2022-09-13T17:31:52;4.60;;;4.10;;
68505;SDS011;55509;50.680;17.942;2022-09-13T17:34:54;4.70;;;4.10;;
68505;SDS011;55509;50.680;17.942;2022-09-13T17:37:57;6.00;;;5.40;;
68505;SDS011;55509;50.680;17.942;2022-09-13T17:41:00;6.40;;;5.80;;
68505;SDS011;55509;50.680;17.942;2022-09-13T17:44:03;6.00;;;5.40;;
68505;SDS011;55509;50.680;17.942;2022-09-13T17:47:09;9.50;;;5.80;;
68505;SDS011;55509;50.680;17.942;2022-09-13T17:50:10;6.00;;;4.70;;
68505;SDS011;55509;50.680;17.942;2022-09-13T17:53:15;9.70;;;5.60;;
68505;SDS011;55509;50.680;17.942;2022-09-13T17:56:21;6.00;;;5.00;;
68505;SDS011;55509;50.680;17.942;2022-09-13T17:59:29;6.40;;;4.90;;
68505;SDS011;55509;50.680;17.942;2022-09-13T18:02:32;6.00;;;5.20;;
68505;SDS011;55509;50.680;17.942;2022-09-13T18:05:34;6.80;;;5.80;;
68505;SDS011;55509;50.680;17.942;2022-09-13T18:08:36;5.90;;;5.30;;
68505;SDS011;55509;50.680;17.942;2022-09-13T18:11:39;6.40;;;5.60;;
68505;SDS011;55509;50.680;17.942;2022-09-13T18:14:41;16.20;;;6.40;;
68505;SDS011;55509;50.680;17.942;2022-09-13T18:17:42;8.80;;;5.60;;
68505;SDS011;55509;50.680;17.942;2022-09-13T18:20:44;7.50;;;5.90;;
68505;SDS011;55509;50.680;17.942;2022-09-13T18:23:50;7.30;;;5.80;;
68505;SDS011;55509;50.680;17.942;2022-09-13T18:26:53;7.90;;;5.20;;
68505;SDS011;55509;50.680;17.942;2022-09-13T18:29:55;7.50;;;5.80;;
68505;SDS011;55509;50.680;17.942;2022-09-13T18:32:57;9.30;;;6.10;;
68505;SDS011;55509;50.680;17.942;2022-09-13T18:36:03;6.30;;;5.10;;
68505;SDS011;55509;50.680;17.942;2022-09-13T18:39:17;5.60;;;4.90;;
68505;SDS011;55509;50.680;17.942;2022-09-13T18:42:29;7.90;;;5.50;;
68505;SDS011;55509;50.680;17.942;2022-09-13T18:45:31;6.50;;;5.90;;
68505;SDS011;55509;50.680;17.942;2022-09-13T18:48:33;6.80;;;6.00;;
68505;SDS011;55509;50.680;17.942;2022-09-13T18:51:38;5.20;;;4.70;;
68505;SDS011;55509;50.680;17.942;2022-09-13T18:54:42;5.00;;;4.50;;
68505;SDS011;55509;50.680;17.942;2022-09-13T18:57:43;25.50;;;20.60;;
68505;SDS011;55509;50.680;17.942;2022-09-13T19:00:45;7.70;;;5.90;;
68505;SDS011;55509;50.680;17.942;2022-09-13T19:03:51;6.40;;;5.80;;
68505;SDS011;55509;50.680;17.942;2022-09-13T19:06:56;10.70;;;4.80;;
68505;SDS011;55509;50.680;17.942;2022-09-13T19:10:07;7.60;;;6.50;;
68505;SDS011;55509;50.680;17.942;2022-09-13T19:16:31;7.50;;;5.90;;
68505;SDS011;55509;50.680;17.942;2022-09-13T19:19:33;7.50;;;5.50;;
68505;SDS011;55509;50.680;17.942;2022-09-13T19:22:35;7.20;;;4.20;;
68505;SDS011;55509;50.680;17.942;2022-09-13T19:25:37;5.60;;;4.40;;
68505;SDS011;55509;50.680;17.942;2022-09-13T19:28:49;13.80;;;5.50;;
68505;SDS011;55509;50.680;17.942;2022-09-13T19:32:06;8.50;;;5.50;;
68505;SDS011;55509;50.680;17.942;2022-09-13T19:35:07;6.40;;;5.70;;
68505;SDS011;55509;50.680;17.942;2022-09-13T19:38:10;7.20;;;5.60;;
68505;SDS011;55509;50.680;17.942;2022-09-13T19:41:12;6.70;;;6.10;;
68505;SDS011;55509;50.680;17.942;2022-09-13T19:44:15;6.30;;;5.60;;
68505;SDS011;55509;50.680;17.942;2022-09-13T19:47:17;10.20;;;6.40;;
68505;SDS011;55509;50.680;17.942;2022-09-13T19:50:20;5.90;;;5.30;;
68505;SDS011;55509;50.680;17.942;2022-09-13T19:53:24;8.10;;;5.90;;
68505;SDS011;55509;50.680;17.942;2022-09-13T19:56:27;14.40;;;10.00;;
68505;SDS011;55509;50.680;17.942;2022-09-13T19:59:30;10.70;;;7.80;;
68505;SDS011;55509;50.680;17.942;2022-09-13T20:02:34;9.60;;;6.80;;
68505;SDS011;55509;50.680;17.942;2022-09-13T20:05:36;6.70;;;5.70;;
68505;SDS011;55509;50.680;17.942;2022-09-13T20:08:41;6.20;;;5.30;;
68505;SDS011;55509;50.680;17.942;2022-09-13T20:11:46;6.60;;;5.30;;
68505;SDS011;55509;50.680;17.942;2022-09-13T20:14:50;6.70;;;5.80;;
68505;SDS011;55509;50.680;17.942;2022-09-13T20:17:52;6.00;;;5.40;;
68505;SDS011;55509;50.680;17.942;2022-09-13T20:21:01;5.50;;;4.70;;
68505;SDS011;55509;50.680;17.942;2022-09-13T20:24:04;7.60;;;4.40;;
68505;SDS011;55509;50.680;17.942;2022-09-13T20:27:08;9.80;;;6.30;;
68505;SDS011;55509;50.680;17.942;2022-09-13T20:30:10;7.50;;;6.20;;
68505;SDS011;55509;50.680;17.942;2022-09-13T20:33:12;8.00;;;5.60;;
68505;SDS011;55509;50.680;17.942;2022-09-13T20:36:14;7.10;;;6.10;;
68505;SDS011;55509;50.680;17.942;2022-09-13T20:39:18;8.70;;;6.50;;
68505;SDS011;55509;50.680;17.942;2022-09-13T20:42:22;4.80;;;4.40;;
68505;SDS011;55509;50.680;17.942;2022-09-13T20:45:26;6.10;;;5.20;;
68505;SDS011;55509;50.680;17.942;2022-09-13T20:48:28;6.30;;;5.00;;
68505;SDS011;55509;50.680;17.942;2022-09-13T20:51:33;4.70;;;4.10;;
68505;SDS011;55509;50.680;17.942;2022-09-13T20:54:38;5.60;;;5.00;;
68505;SDS011;55509;50.680;17.942;2022-09-13T20:57:42;5.70;;;5.20;;
68505;SDS011;55509;50.680;17.942;2022-09-13T21:00:44;5.90;;;5.10;;
68505;SDS011;55509;50.680;17.942;2022-09-13T21:03:49;7.10;;;4.80;;
68505;SDS011;55509;50.680;17.942;2022-09-13T21:06:57;6.60;;;5.90;;
68505;SDS011;55509;50.680;17.942;2022-09-13T21:10:17;7.10;;;6.40;;
68505;SDS011;55509;50.680;17.942;2022-09-13T21:13:18;10.00;;;6.50;;
68505;SDS011;55509;50.680;17.942;2022-09-13T21:16:22;7.00;;;6.30;;
68505;SDS011;55509;50.680;17.942;2022-09-13T21:19:34;6.10;;;5.40;;
68505;SDS011;55509;50.680;17.942;2022-09-13T21:22:35;5.50;;;4.90;;
68505;SDS011;55509;50.680;17.942;2022-09-13T21:25:37;5.10;;;4.70;;
68505;SDS011;55509;50.680;17.942;2022-09-13T21:28:39;5.40;;;4.90;;
68505;SDS011;55509;50.680;17.942;2022-09-13T21:31:45;5.50;;;4.90;;
68505;SDS011;55509;50.680;17.942;2022-09-13T21:34:46;5.70;;;5.20;;
68505;SDS011;55509;50.680;17.942;2022-09-13T21:37:51;6.50;;;5.90;;